createdAt,value
2023-04-05T00:04:52.304Z,0.75
2023-04-05T00:10:13.242Z,0.66
2023-04-05T00:15:33.998Z,0.48
2023-04-05T00:20:54.531Z,0.60
2023-04-05T00:26:15.563Z,0.64
2023-04-05T00:31:41.217Z,0.61
2023-04-05T00:37:01.908Z,0.64
2023-04-05T00:42:22.660Z,0.52
2023-04-05T00:47:44.190Z,0.36
2023-04-05T00:53:05.544Z,0.24
2023-04-05T00:58:26.362Z,0.28
2023-04-05T01:03:53.826Z,0.30
2023-04-05T01:09:23.424Z,0.33
2023-04-05T01:14:50.255Z,0.37
2023-04-05T01:20:11.937Z,0.40
2023-04-05T01:26:02.537Z,0.44
2023-04-05T01:31:35.383Z,0.46
2023-04-05T01:37:02.682Z,0.38
2023-04-05T01:42:26.016Z,0.48
2023-04-05T01:47:47.081Z,0.36
2023-04-05T01:53:08.437Z,0.47
2023-04-05T01:58:29.441Z,0.54
2023-04-05T02:03:50.419Z,0.47
2023-04-05T02:09:11.363Z,0.46
2023-04-05T02:14:32.489Z,0.44
2023-04-05T02:19:53.280Z,0.38
2023-04-05T02:25:14.627Z,0.43
2023-04-05T02:30:35.370Z,0.44
2023-04-05T02:35:56.357Z,0.40
2023-04-05T02:41:17.797Z,0.36
2023-04-05T02:46:38.656Z,0.21
2023-04-05T02:51:59.876Z,0.12
2023-04-05T02:57:20.688Z,0.09
2023-04-05T03:02:48.970Z,0.10
2023-04-05T03:08:18.592Z,-0.05
2023-04-05T03:13:46.601Z,-0.06
2023-04-05T03:19:22.479Z,-0.13
2023-04-05T03:24:47.902Z,0.03
2023-04-05T03:30:11.989Z,0.10
2023-04-05T03:35:39.091Z,0.14
2023-04-05T03:41:02.981Z,0.23
2023-04-05T03:46:24.369Z,0.19
2023-04-05T03:51:46.473Z,-0.02
2023-04-05T03:57:07.612Z,-0.02
2023-04-05T04:02:29.281Z,-0.09
2023-04-05T04:07:50.162Z,-0.12
2023-04-05T04:13:12.815Z,-0.13
2023-04-05T04:18:34.112Z,-0.26
2023-04-05T04:24:19.552Z,-0.41
2023-04-05T04:29:48.259Z,-0.39
2023-04-05T04:35:39.295Z,-0.21
2023-04-05T04:41:26.838Z,-0.34
2023-04-05T04:47:14.799Z,-0.37
2023-04-05T04:52:54.550Z,-0.31
2023-04-05T04:58:15.910Z,0.09
2023-04-05T05:03:40.354Z,0.42
2023-04-05T05:09:01.389Z,0.61
2023-04-05T05:14:23.797Z,0.79
2023-04-05T05:19:45.663Z,1.03
2023-04-05T05:25:07.395Z,1.28
2023-04-05T05:30:28.818Z,1.35
2023-04-05T05:35:51.368Z,1.15
2023-04-05T05:41:12.169Z,1.19
2023-04-05T05:46:33.190Z,0.97
2023-04-05T05:51:53.844Z,0.99
2023-04-05T05:57:14.593Z,0.98
2023-04-05T06:02:35.409Z,1.27
2023-04-05T06:07:56.025Z,1.78
2023-04-05T06:13:17.330Z,1.99
2023-04-05T06:18:38.426Z,2.31
2023-04-05T06:23:59.277Z,2.57
2023-04-05T06:29:20.116Z,2.84
2023-04-05T06:34:41.149Z,3.05
2023-04-05T06:40:02.011Z,3.08
2023-04-05T06:45:23.468Z,3.01
2023-04-05T06:50:44.218Z,3.02
2023-04-05T06:56:05.199Z,3.18
2023-04-05T07:01:26.399Z,2.96
2023-04-05T07:06:47.350Z,3.34
2023-04-05T07:12:08.957Z,3.41
2023-04-05T07:17:29.710Z,3.31
2023-04-05T07:22:50.445Z,3.24
2023-04-05T07:28:11.097Z,3.54
2023-04-05T07:33:32.144Z,3.51
2023-04-05T07:38:57.546Z,3.42
2023-04-05T07:44:18.459Z,3.32
2023-04-05T07:49:39.338Z,3.54
2023-04-05T07:55:00.217Z,3.64
2023-04-05T08:00:21.506Z,3.70
2023-04-05T08:05:42.606Z,3.91
2023-04-05T08:11:04.183Z,3.96
2023-04-05T08:16:24.840Z,4.06
2023-04-05T08:21:45.632Z,4.15
2023-04-05T08:27:06.520Z,4.17
2023-04-05T08:32:27.429Z,4.35
2023-04-05T08:37:48.686Z,4.39
2023-04-05T08:43:31.321Z,4.23
2023-04-05T08:48:53.372Z,4.11
2023-04-05T08:54:14.778Z,3.97
2023-04-05T08:59:42.092Z,3.89
2023-04-05T09:05:03.943Z,3.84
2023-04-05T09:10:27.314Z,4.18
2023-04-05T09:15:48.887Z,4.55
2023-04-05T09:21:10.222Z,4.83
2023-04-05T09:31:54.961Z,4.81
2023-04-05T09:37:20.609Z,4.95
2023-04-05T09:42:48.284Z,4.92
2023-04-05T09:48:10.279Z,4.89
2023-04-05T09:53:31.193Z,4.94
2023-04-05T09:58:52.440Z,5.23
2023-04-05T10:04:13.098Z,5.47
2023-04-05T10:09:35.464Z,5.47
2023-04-05T10:14:57.163Z,5.12
2023-04-05T10:20:21.101Z,4.97
2023-04-05T10:25:53.724Z,4.64
2023-04-05T10:31:45.815Z,4.56
2023-04-05T10:37:07.446Z,4.60
2023-04-05T10:42:34.983Z,4.40
2023-04-05T10:48:07.047Z,4.48
2023-04-05T10:53:28.635Z,4.55
2023-04-05T10:58:50.839Z,4.90
2023-04-05T11:04:13.617Z,5.31
2023-04-05T11:09:35.089Z,5.31
2023-04-05T11:15:27.951Z,5.41
2023-04-05T11:20:56.011Z,5.30
2023-04-05T11:26:16.985Z,5.18
2023-04-05T11:31:57.943Z,5.26
2023-04-05T11:37:18.665Z,5.40
2023-04-05T11:42:39.422Z,5.56
2023-04-05T11:48:11.812Z,5.32
2023-04-05T11:53:32.367Z,5.38
2023-04-05T11:58:58.443Z,5.51
2023-04-05T12:04:19.508Z,5.42
2023-04-05T12:10:04.662Z,5.31
2023-04-05T12:15:25.341Z,5.13
2023-04-05T12:20:46.335Z,5.23
2023-04-05T12:26:08.670Z,5.24
2023-04-05T12:31:37.477Z,5.19
2023-04-05T12:37:00.715Z,5.26
2023-04-05T12:42:22.704Z,5.37
2023-04-05T12:47:50.941Z,5.63
2023-04-05T12:53:23.372Z,5.61
2023-04-05T12:58:48.600Z,5.78
2023-04-05T13:04:16.013Z,5.58
2023-04-05T13:09:37.613Z,5.52
2023-04-05T13:14:58.345Z,5.40
2023-04-05T13:20:19.174Z,5.28
2023-04-05T13:25:41.829Z,5.31
2023-04-05T13:31:03.746Z,5.45
2023-04-05T13:36:24.604Z,5.45
2023-04-05T13:41:45.588Z,5.46
2023-04-05T13:47:06.525Z,5.61
2023-04-05T13:52:27.294Z,5.41
2023-04-05T13:57:48.562Z,5.38
2023-04-05T14:03:09.463Z,5.37
2023-04-05T14:08:30.345Z,6.77
2023-04-05T14:13:51.621Z,6.41
2023-04-05T14:19:12.769Z,5.99
2023-04-05T14:24:33.893Z,5.86
2023-04-05T14:29:58.465Z,5.80
2023-04-05T14:35:19.102Z,5.74
2023-04-05T14:40:40.193Z,5.68
2023-04-05T14:46:01.225Z,5.63
2023-04-05T14:51:21.906Z,5.70
2023-04-05T14:56:42.624Z,5.63
2023-04-05T15:02:03.747Z,5.62
2023-04-05T15:07:24.746Z,5.60
2023-04-05T15:12:45.549Z,5.42
2023-04-05T15:18:08.121Z,5.43
2023-04-05T15:23:29.012Z,5.44
2023-04-05T15:28:49.710Z,5.46
2023-04-05T15:34:10.557Z,5.37
2023-04-05T15:39:31.614Z,5.33
2023-04-05T15:44:52.258Z,5.37
2023-04-05T15:50:13.254Z,5.45
2023-04-05T15:55:34.423Z,5.55
2023-04-05T16:00:55.454Z,5.42
2023-04-05T16:06:16.706Z,5.49
2023-04-05T16:11:37.497Z,5.56
2023-04-05T16:16:58.414Z,5.60
2023-04-05T16:22:19.166Z,5.65
2023-04-05T16:27:40.216Z,5.60
2023-04-05T16:33:01.132Z,5.63
2023-04-05T16:38:22.153Z,5.72
2023-04-05T16:43:42.985Z,5.72
2023-04-05T16:49:04.039Z,5.65
2023-04-05T16:54:25.492Z,5.54
2023-04-05T16:59:46.466Z,5.49
2023-04-05T17:05:07.535Z,5.39
2023-04-05T17:10:28.549Z,5.29
2023-04-05T17:15:49.541Z,5.12
2023-04-05T17:21:12.349Z,5.14
2023-04-05T17:26:33.083Z,5.23
2023-04-05T17:31:53.951Z,5.33
2023-04-05T17:37:14.919Z,5.20
2023-04-05T17:42:35.859Z,4.90
2023-04-05T17:47:57.240Z,4.78
2023-04-05T17:53:19.508Z,4.78
2023-04-05T17:58:40.359Z,4.56
2023-04-05T18:04:01.193Z,4.39
2023-04-05T18:09:22.408Z,4.35
2023-04-05T18:14:43.125Z,4.42
2023-04-05T18:20:04.962Z,4.35
2023-04-05T18:25:26.632Z,4.07
2023-04-05T18:30:50.186Z,4.09
2023-04-05T18:36:15.022Z,4.20
2023-04-05T18:41:35.593Z,4.15
2023-04-05T18:46:57.095Z,4.02
2023-04-05T18:52:22.683Z,4.04
2023-04-05T18:57:43.288Z,3.90
2023-04-05T19:03:04.156Z,3.86
2023-04-05T19:08:25.697Z,3.80
2023-04-05T19:13:46.653Z,3.92
2023-04-05T19:19:07.878Z,3.99
2023-04-05T19:24:29.154Z,3.85
2023-04-05T19:29:50.032Z,3.86
2023-04-05T19:35:10.939Z,3.78
2023-04-05T19:40:32.231Z,3.74
2023-04-05T19:45:57.350Z,3.97
2023-04-05T19:51:19.649Z,3.85
2023-04-05T19:56:42.004Z,3.84
2023-04-05T20:02:10.208Z,3.75
2023-04-05T20:07:31.285Z,3.67
2023-04-05T20:12:52.449Z,3.59
2023-04-05T20:18:39.993Z,3.58
2023-04-05T20:24:02.032Z,3.59
2023-04-05T20:29:28.800Z,3.55
2023-04-05T20:34:49.835Z,3.58
2023-04-05T20:40:11.878Z,3.47
2023-04-05T20:45:33.309Z,3.42
2023-04-05T20:50:54.359Z,3.37
2023-04-05T20:56:15.898Z,3.42
2023-04-05T21:01:38.045Z,3.23
2023-04-05T21:06:59.155Z,3.10
2023-04-05T21:12:20.215Z,2.94
2023-04-05T21:17:41.142Z,2.94
2023-04-05T21:23:04.092Z,2.95
2023-04-05T21:28:26.248Z,2.98
2023-04-05T21:33:47.069Z,3.08
2023-04-05T21:39:08.175Z,3.19
2023-04-05T21:44:29.227Z,2.93
2023-04-05T21:49:50.693Z,2.66
2023-04-05T21:55:12.139Z,2.74
2023-04-05T22:00:33.258Z,2.78
2023-04-05T22:05:54.055Z,2.55
2023-04-05T22:11:14.923Z,2.46
2023-04-05T22:16:35.818Z,2.49
2023-04-05T22:21:56.782Z,2.49
2023-04-05T22:27:18.575Z,2.59
2023-04-05T22:32:39.556Z,2.52
2023-04-05T22:38:00.306Z,2.35
2023-04-05T22:43:21.062Z,2.42
2023-04-05T22:48:42.005Z,2.54
2023-04-05T22:54:03.128Z,2.67
2023-04-05T22:59:23.983Z,2.68
2023-04-05T23:04:44.768Z,2.54
2023-04-05T23:10:05.667Z,2.57
2023-04-05T23:15:26.802Z,2.54
2023-04-05T23:20:47.429Z,2.43
2023-04-05T23:26:08.230Z,2.38
2023-04-05T23:31:29.161Z,2.29
2023-04-05T23:36:49.989Z,2.28
2023-04-05T23:42:10.814Z,2.27
2023-04-05T23:47:31.674Z,2.18
2023-04-05T23:52:52.600Z,2.27
2023-04-05T23:58:13.193Z,2.41
